Nyk Orpheus — 7JDN — position and weather

sailwx.info

Track history (hours):
 
Tides and Currents Weather Stations Pressure Air Temp Water Temp Dewpoint Dewpoint Depression Visibility Wind Speed Wind Dir Waves Ship Positions

Nyk Orpheus

Last reported at 2016-Jul-25 10:32 UTC. Time now 2016-Jul-25 17:51 UTC.
Position N 33°33' E 025°54'.

Length 336 m; draft 12.9 m.

Type: Other ship. MMSI: 432657000.

Date/timePositionNaut miles runAvg speedWind from/ knotsBaromVisibWave heightAir tempDewpointWater temp
2016-Jul-25 10:32N 33°33' E 025°54'13819.1
2016-Jul-25 03:18N 32°51' E 028°31'1419.1
2016-Jul-25 02:34N 32°47' E 028°47'3919.4
2016-Jul-25 00:33N 32°36' E 029°31'1919.5
2016-Jul-24 23:33N 32°30' E 029°53'2219.5
2016-Jul-24 22:25N 32°23' E 030°18'1719.8
2016-Jul-24 21:34N 32°18' E 030°38'2020.2
2016-Jul-24 20:34N 32°12' E 031°00'2019.7
2016-Jul-24 19:33N 32°06' E 031°22'1919.4
2016-Jul-24 18:34N 31°55' E 031°42'1918.7
2016-Jul-24 17:33N 31°45' E 031°60'2418.5
2016-Jul-24 16:17N 31°29' E 032°21'1012.1
2016-Jul-24 15:28N 31°20' E 032°23'910.1
2016-Jul-24 14:33N 31°11' E 032°20'9 8.6
2016-Jul-24 13:33N 31°02' E 032°19'  
Track history (hours):
 
Tides and Currents Weather Stations Pressure Air Temp Water Temp Dewpoint Dewpoint Depression Visibility Wind Speed Wind Dir Waves Ship Positions

Nyk Orpheus

Last reported at 2016-Jul-25 10:32 UTC. Time now 2016-Jul-25 17:51 UTC.
Position N 33°33' E 025°54'.

Length 336 m; draft 12.9 m.

Type: Other ship. MMSI: 432657000.

Date/timePositionNaut miles runAvg speedWind from/ knotsBaromVisibWave heightAir tempDewpointWater temp
2016-Jul-25 10:32N 33°33' E 025°54'13819.1
2016-Jul-25 03:18N 32°51' E 028°31'1419.1
2016-Jul-25 02:34N 32°47' E 028°47'3919.4
2016-Jul-25 00:33N 32°36' E 029°31'1919.5
2016-Jul-24 23:33N 32°30' E 029°53'2219.5
2016-Jul-24 22:25N 32°23' E 030°18'1719.8
2016-Jul-24 21:34N 32°18' E 030°38'2020.2
2016-Jul-24 20:34N 32°12' E 031°00'2019.7
2016-Jul-24 19:33N 32°06' E 031°22'1919.4
2016-Jul-24 18:34N 31°55' E 031°42'1918.7
2016-Jul-24 17:33N 31°45' E 031°60'2418.5
2016-Jul-24 16:17N 31°29' E 032°21'1012.1
2016-Jul-24 15:28N 31°20' E 032°23'910.1
2016-Jul-24 14:33N 31°11' E 032°20'9 8.6
2016-Jul-24 13:33N 31°02' E 032°19'  

Dump ship's entire track history